createdAt,value
2018-06-21T00:00:38.684Z,18.30
2018-06-21T00:01:38.667Z,18.31
2018-06-21T00:02:38.654Z,18.27
2018-06-21T00:03:38.662Z,18.27
2018-06-21T00:04:38.629Z,18.12
2018-06-21T00:05:38.935Z,18.18
2018-06-21T00:06:38.614Z,18.18
2018-06-21T00:07:38.594Z,18.13
2018-06-21T00:08:38.577Z,18.06
2018-06-21T00:09:38.565Z,18.05
2018-06-21T00:10:38.558Z,18.01
2018-06-21T00:11:38.552Z,18.09
2018-06-21T00:12:38.840Z,17.96
2018-06-21T00:13:38.524Z,17.94
2018-06-21T00:14:38.508Z,18.01
2018-06-21T00:15:38.490Z,17.97
2018-06-21T00:16:38.481Z,17.94
2018-06-21T00:17:38.468Z,17.88
2018-06-21T00:18:38.547Z,17.91
2018-06-21T00:19:38.763Z,17.91
2018-06-21T00:20:38.436Z,17.83
2018-06-21T00:21:38.429Z,17.83
2018-06-21T00:22:38.403Z,17.86
2018-06-21T00:23:38.393Z,17.86
2018-06-21T00:24:38.374Z,17.79
2018-06-21T00:25:38.359Z,17.72
2018-06-21T00:26:38.651Z,17.75
2018-06-21T00:27:38.336Z,17.81
2018-06-21T00:28:38.324Z,17.68
2018-06-21T00:29:38.313Z,17.66
2018-06-21T00:30:38.303Z,17.65
2018-06-21T00:31:38.287Z,17.62
2018-06-21T00:32:38.275Z,17.52
2018-06-21T00:33:38.562Z,17.49
2018-06-21T00:34:38.248Z,17.43
2018-06-21T00:35:38.238Z,17.37
2018-06-21T00:36:38.218Z,17.38
2018-06-21T00:37:38.212Z,17.27
2018-06-21T00:38:38.199Z,17.13
2018-06-21T00:39:38.183Z,17.13
2018-06-21T00:40:38.723Z,17.12
2018-06-21T00:41:38.155Z,17.10
2018-06-21T00:42:38.144Z,17.12
2018-06-21T00:43:38.345Z,17.22
2018-06-21T00:44:38.131Z,17.10
2018-06-21T00:45:38.101Z,17.16
2018-06-21T00:46:38.090Z,17.17
2018-06-21T00:47:38.374Z,17.25
2018-06-21T00:48:38.063Z,17.25
2018-06-21T00:49:38.049Z,17.22
2018-06-21T00:50:38.046Z,17.28
2018-06-21T00:51:38.024Z,17.20
2018-06-21T00:52:38.005Z,17.24
2018-06-21T00:53:38.298Z,17.14
2018-06-21T00:54:37.983Z,17.09
2018-06-21T00:55:37.982Z,17.01
2018-06-21T00:56:37.956Z,16.98
2018-06-21T00:57:37.952Z,17.01
2018-06-21T00:58:37.935Z,17.02
2018-06-21T00:59:38.239Z,16.92
2018-06-21T01:00:37.903Z,16.97
2018-06-21T01:01:37.992Z,16.90
2018-06-21T01:02:37.937Z,16.84
2018-06-21T01:03:37.864Z,16.95
2018-06-21T01:04:37.848Z,16.88
2018-06-21T01:05:38.140Z,16.90
2018-06-21T01:06:37.836Z,16.77
2018-06-21T01:07:37.829Z,16.76
2018-06-21T01:09:37.814Z,16.61
2018-06-21T01:10:37.779Z,16.64
2018-06-21T01:11:38.061Z,16.65
2018-06-21T01:12:37.741Z,16.70
2018-06-21T01:13:37.730Z,16.70
2018-06-21T01:14:37.717Z,16.79
2018-06-21T01:15:37.758Z,16.79
2018-06-21T01:16:37.685Z,16.94
2018-06-21T01:17:37.974Z,16.83
2018-06-21T01:18:37.689Z,16.82
2018-06-21T01:19:37.644Z,16.88
2018-06-21T01:20:37.638Z,16.80
2018-06-21T01:21:37.921Z,16.82
2018-06-21T01:22:37.604Z,16.92
2018-06-21T01:23:37.911Z,16.95
2018-06-21T01:24:37.577Z,16.88
2018-06-21T01:25:37.568Z,16.95
2018-06-21T01:26:37.551Z,16.92
2018-06-21T01:27:37.593Z,16.88
2018-06-21T01:28:37.524Z,16.83
2018-06-21T01:29:37.820Z,16.88
2018-06-21T01:30:37.504Z,16.88
2018-06-21T01:31:37.489Z,16.83
2018-06-21T01:32:37.469Z,16.90
2018-06-21T01:34:37.490Z,16.83
2018-06-21T01:35:37.428Z,16.83
2018-06-21T01:36:37.712Z,16.70
2018-06-21T01:37:37.409Z,16.74
2018-06-21T01:38:37.389Z,16.74
2018-06-21T01:39:37.371Z,16.59
2018-06-21T01:40:37.360Z,16.64
2018-06-21T01:41:37.348Z,16.61
2018-06-21T01:42:37.338Z,16.65
2018-06-21T01:43:37.617Z,16.49
2018-06-21T01:44:37.305Z,16.64
2018-06-21T01:45:37.294Z,16.65
2018-06-21T01:46:37.275Z,16.59
2018-06-21T01:47:37.264Z,16.57
2018-06-21T01:48:37.264Z,16.57
2018-06-21T01:49:37.236Z,16.55
2018-06-21T01:50:37.524Z,16.52
2018-06-21T01:51:37.215Z,16.42
2018-06-21T01:52:37.192Z,16.42
2018-06-21T01:53:37.180Z,16.43
2018-06-21T01:54:37.172Z,16.43
2018-06-21T01:55:37.154Z,16.42
2018-06-21T01:56:37.136Z,16.40
2018-06-21T01:57:37.440Z,16.40
2018-06-21T01:58:37.110Z,16.36
2018-06-21T01:59:37.099Z,16.32
2018-06-21T02:00:37.081Z,16.26
2018-06-21T02:01:37.067Z,16.32
2018-06-21T02:02:37.055Z,16.26
2018-06-21T02:03:37.049Z,16.17
2018-06-21T02:04:37.324Z,16.34
2018-06-21T02:05:37.020Z,16.36
2018-06-21T02:06:37.010Z,16.33
2018-06-21T02:07:36.986Z,16.28
2018-06-21T02:08:36.971Z,16.43
2018-06-21T02:09:36.960Z,16.46
2018-06-21T02:10:36.961Z,16.51
2018-06-21T02:11:37.236Z,16.47
2018-06-21T02:12:36.943Z,16.47
2018-06-21T02:13:36.903Z,16.40
2018-06-21T02:14:36.895Z,16.43
2018-06-21T02:15:36.898Z,16.33
2018-06-21T02:16:36.858Z,16.25
2018-06-21T02:17:37.189Z,16.22
2018-06-21T02:18:37.185Z,16.24
2018-06-21T02:19:36.826Z,16.17
2018-06-21T02:20:36.805Z,16.14
2018-06-21T02:21:36.823Z,16.17
2018-06-21T02:22:36.774Z,16.26
2018-06-21T02:23:36.762Z,16.16
2018-06-21T02:24:37.056Z,16.32
2018-06-21T02:25:36.750Z,16.24
2018-06-21T02:26:36.787Z,16.29
2018-06-21T02:27:36.708Z,16.33
2018-06-21T02:28:36.698Z,16.40
2018-06-21T02:29:36.685Z,16.46
2018-06-21T02:30:36.959Z,16.51
2018-06-21T02:31:36.645Z,16.46
2018-06-21T02:32:36.631Z,16.43
2018-06-21T02:33:36.698Z,16.46
2018-06-21T02:34:36.766Z,16.37
2018-06-21T02:35:37.171Z,16.42
2018-06-21T02:36:36.877Z,16.47
2018-06-21T02:37:36.579Z,16.36
2018-06-21T02:38:36.554Z,16.47
2018-06-21T02:39:36.546Z,16.49
2018-06-21T02:40:36.526Z,16.42
2018-06-21T02:41:36.501Z,16.44
2018-06-21T02:42:36.789Z,16.44
2018-06-21T02:44:36.462Z,16.44
2018-06-21T02:45:36.463Z,16.43
2018-06-21T02:46:36.440Z,16.43
2018-06-21T02:47:36.421Z,16.46
2018-06-21T02:48:36.702Z,16.47
2018-06-21T02:49:36.397Z,16.42
2018-06-21T02:50:36.376Z,16.44
2018-06-21T02:51:36.365Z,16.37
2018-06-21T02:53:36.337Z,16.43
2018-06-21T02:54:36.321Z,16.57
2018-06-21T02:55:36.611Z,16.58
2018-06-21T02:56:36.288Z,16.58
2018-06-21T02:57:36.276Z,16.55
2018-06-21T02:59:36.251Z,16.59
2018-06-21T03:00:36.236Z,16.69
2018-06-21T03:01:36.522Z,16.65
2018-06-21T03:02:36.203Z,16.54
2018-06-21T03:03:36.201Z,16.72
2018-06-21T03:04:36.177Z,16.69
2018-06-21T03:05:36.164Z,16.67
2018-06-21T03:07:36.466Z,16.72
2018-06-21T03:08:36.123Z,16.77
2018-06-21T03:09:36.107Z,16.82
2018-06-21T03:10:36.102Z,16.77
2018-06-21T03:11:36.077Z,16.84
2018-06-21T03:12:36.061Z,16.77
2018-06-21T03:13:36.152Z,16.74
2018-06-21T03:14:36.343Z,16.82
2018-06-21T03:15:36.022Z,16.82
2018-06-21T03:16:36.011Z,16.87
2018-06-21T03:18:35.979Z,16.80
2018-06-21T03:19:35.964Z,16.79
2018-06-21T03:20:35.954Z,16.88
2018-06-21T03:21:36.246Z,16.82
2018-06-21T03:22:35.921Z,16.79
2018-06-21T03:23:35.907Z,16.73
2018-06-21T03:24:35.895Z,16.73
2018-06-21T03:25:35.881Z,16.70
2018-06-21T03:26:35.873Z,16.72
2018-06-21T03:28:36.142Z,16.67
2018-06-21T03:29:35.828Z,16.67
2018-06-21T03:30:35.811Z,16.69
2018-06-21T03:31:35.797Z,16.65
2018-06-21T03:32:35.782Z,16.64
2018-06-21T03:33:35.769Z,16.59
2018-06-21T03:34:35.791Z,16.65
2018-06-21T03:35:36.045Z,16.69
2018-06-21T03:36:35.727Z,16.70
2018-06-21T03:37:35.714Z,16.69
2018-06-21T03:38:35.702Z,16.73
2018-06-21T03:39:35.733Z,16.70
2018-06-21T03:40:35.668Z,16.79
2018-06-21T03:41:35.664Z,16.74
2018-06-21T03:42:35.942Z,16.70
2018-06-21T03:43:35.629Z,16.77
2018-06-21T03:44:35.627Z,16.77
2018-06-21T03:46:35.592Z,16.82
2018-06-21T03:47:35.586Z,16.83
2018-06-21T03:48:35.578Z,16.84
2018-06-21T03:50:35.604Z,16.88
2018-06-21T03:51:35.523Z,17.01
2018-06-21T03:52:35.501Z,17.02
2018-06-21T03:53:35.494Z,17.13
2018-06-21T03:54:35.481Z,17.19
2018-06-21T03:55:35.546Z,17.35
2018-06-21T03:56:35.451Z,17.30
2018-06-21T03:58:35.418Z,17.43
2018-06-21T03:59:35.407Z,17.52
2018-06-21T04:00:35.399Z,17.63
2018-06-21T04:01:35.680Z,17.62
2018-06-21T04:02:35.363Z,17.78
2018-06-21T04:03:35.352Z,17.83
2018-06-21T04:04:36.271Z,17.76
2018-06-21T04:05:35.325Z,17.78
2018-06-21T04:06:35.308Z,17.93
2018-06-21T04:07:35.300Z,17.87
2018-06-21T04:08:35.282Z,17.99
2018-06-21T04:09:35.277Z,17.93
2018-06-21T04:10:35.252Z,17.91
2018-06-21T04:11:35.255Z,18.12
2018-06-21T04:12:35.235Z,18.08
2018-06-21T04:13:35.211Z,18.12
2018-06-21T04:14:35.199Z,18.12
2018-06-21T04:15:35.185Z,18.18
2018-06-21T04:16:35.170Z,18.13
2018-06-21T04:17:35.238Z,18.15
2018-06-21T04:19:35.438Z,18.24
2018-06-21T04:20:35.120Z,18.21
2018-06-21T04:21:35.118Z,18.31
2018-06-21T04:22:35.089Z,18.28
2018-06-21T04:23:35.079Z,18.39
2018-06-21T04:24:35.062Z,18.34
2018-06-21T04:25:35.050Z,18.39
2018-06-21T04:26:35.062Z,18.36
2018-06-21T04:27:35.025Z,18.39
2018-06-21T04:28:35.025Z,18.38
2018-06-21T04:29:35.003Z,18.43
2018-06-21T04:30:34.987Z,18.39
2018-06-21T04:31:35.273Z,18.42
2018-06-21T04:32:34.957Z,18.42
2018-06-21T04:33:34.944Z,18.51
2018-06-21T04:34:34.940Z,18.52
2018-06-21T04:35:34.926Z,18.46
2018-06-21T04:36:34.955Z,18.54
2018-06-21T04:37:34.950Z,18.48
2018-06-21T04:38:35.183Z,18.56
2018-06-21T04:39:34.872Z,18.60
2018-06-21T04:40:34.854Z,18.49
2018-06-21T04:41:34.865Z,18.60
2018-06-21T04:42:34.831Z,18.56
2018-06-21T04:43:34.965Z,18.52
2018-06-21T04:44:34.804Z,18.70
2018-06-21T04:45:35.092Z,18.68
2018-06-21T04:46:34.806Z,18.64
2018-06-21T04:47:34.762Z,18.75
2018-06-21T04:48:34.750Z,18.76
2018-06-21T04:49:34.736Z,18.71
2018-06-21T04:50:34.721Z,18.86
2018-06-21T04:51:34.718Z,18.82
2018-06-21T04:52:35.009Z,18.86
2018-06-21T04:53:34.690Z,18.86
2018-06-21T04:54:34.672Z,18.88
2018-06-21T04:55:34.666Z,18.97
2018-06-21T04:56:35.847Z,19.01
2018-06-21T04:57:34.634Z,19.08
2018-06-21T04:58:34.923Z,19.12
2018-06-21T04:59:34.614Z,19.08
2018-06-21T05:00:34.611Z,19.20
2018-06-21T05:01:34.584Z,19.23
2018-06-21T05:02:34.570Z,19.23
2018-06-21T05:03:34.562Z,19.32
2018-06-21T05:04:34.845Z,19.30
2018-06-21T05:05:34.539Z,19.34
2018-06-21T05:06:34.521Z,19.47
2018-06-21T05:07:34.560Z,19.34
2018-06-21T05:08:34.497Z,19.42
2018-06-21T05:09:34.484Z,19.39
2018-06-21T05:10:34.484Z,19.39
2018-06-21T05:11:34.790Z,19.44
2018-06-21T05:12:34.446Z,19.34
2018-06-21T05:13:34.438Z,19.41
2018-06-21T05:14:34.420Z,19.37
2018-06-21T05:15:34.425Z,19.49
2018-06-21T05:16:34.403Z,19.44
2018-06-21T05:17:34.383Z,19.39
2018-06-21T05:18:34.675Z,19.53
2018-06-21T05:19:34.366Z,19.62
2018-06-21T05:20:34.352Z,19.49
2018-06-21T05:21:34.339Z,19.59
2018-06-21T05:22:34.344Z,19.71
2018-06-21T05:23:34.596Z,19.70
2018-06-21T05:24:34.300Z,19.72
2018-06-21T05:25:34.741Z,19.72
2018-06-21T05:26:34.275Z,19.78
2018-06-21T05:27:35.849Z,19.78
2018-06-21T05:28:34.396Z,19.84
2018-06-21T05:29:34.331Z,19.81
2018-06-21T05:30:34.417Z,19.87
2018-06-21T05:31:34.629Z,19.86
2018-06-21T05:32:34.281Z,19.97
2018-06-21T05:33:34.200Z,20.02
2018-06-21T05:35:34.176Z,19.96
2018-06-21T05:36:34.170Z,19.96
2018-06-21T05:37:34.282Z,19.93
2018-06-21T05:38:34.137Z,20.00
2018-06-21T05:39:34.132Z,19.99
2018-06-21T05:41:34.107Z,20.07
2018-06-21T05:42:34.090Z,20.07
2018-06-21T05:43:34.386Z,20.09
2018-06-21T05:44:34.067Z,20.11
2018-06-21T05:45:34.055Z,20.08
2018-06-21T05:46:34.044Z,20.05
2018-06-21T05:47:34.039Z,20.07
2018-06-21T05:48:34.033Z,20.02
2018-06-21T05:49:34.315Z,20.07
2018-06-21T05:50:34.007Z,20.02
2018-06-21T05:51:34.008Z,20.04
2018-06-21T05:52:33.977Z,20.09
2018-06-21T05:53:33.979Z,20.08
2018-06-21T05:54:33.961Z,20.09
2018-06-21T05:55:34.245Z,20.17
2018-06-21T05:56:33.938Z,20.15
2018-06-21T05:57:33.922Z,20.14
2018-06-21T05:58:33.909Z,20.22
2018-06-21T05:59:33.973Z,20.05
2018-06-21T06:00:33.933Z,20.12
2018-06-21T06:01:34.179Z,20.09
2018-06-21T06:02:33.871Z,19.94
2018-06-21T06:04:33.865Z,20.04
2018-06-21T06:05:33.837Z,20.07
2018-06-21T06:06:33.821Z,19.94
2018-06-21T06:07:34.118Z,20.07
2018-06-21T06:08:33.828Z,20.04
2018-06-21T06:09:33.799Z,20.11
2018-06-21T06:11:33.774Z,20.23
2018-06-21T06:12:33.777Z,20.26
2018-06-21T06:13:33.757Z,20.15
2018-06-21T06:14:33.750Z,20.14
2018-06-21T06:15:33.730Z,20.15
2018-06-21T06:16:33.710Z,20.26
2018-06-21T06:17:33.704Z,20.29
2018-06-21T06:18:33.695Z,20.26
2018-06-21T06:19:33.682Z,20.27
2018-06-21T06:20:33.673Z,20.25
2018-06-21T06:21:33.658Z,20.09
2018-06-21T06:22:33.651Z,20.11
2018-06-21T06:23:33.643Z,20.11
2018-06-21T06:24:33.624Z,20.19
2018-06-21T06:25:33.666Z,20.17
2018-06-21T06:26:33.615Z,20.29
2018-06-21T06:27:33.601Z,20.11
2018-06-21T06:28:33.657Z,20.07
2018-06-21T06:29:33.571Z,19.97
2018-06-21T06:30:33.570Z,19.86
2018-06-21T06:31:33.919Z,19.79
2018-06-21T06:32:33.541Z,19.82
2018-06-21T06:33:33.578Z,19.71
2018-06-21T06:34:33.524Z,19.67
2018-06-21T06:35:33.511Z,19.64
2018-06-21T06:36:33.497Z,19.59
2018-06-21T06:37:33.490Z,19.59
2018-06-21T06:38:33.771Z,19.45
2018-06-21T06:39:33.458Z,19.34
2018-06-21T06:40:33.460Z,19.12
2018-06-21T06:41:33.441Z,18.97
2018-06-21T06:42:33.425Z,18.79
2018-06-21T06:43:33.414Z,18.57
2018-06-21T06:44:33.412Z,18.39
2018-06-21T06:45:33.695Z,18.15
2018-06-21T06:46:33.392Z,18.15
2018-06-21T06:47:33.369Z,18.11
2018-06-21T06:48:33.361Z,18.02
2018-06-21T06:49:33.342Z,17.94
2018-06-21T06:50:33.332Z,17.93
2018-06-21T06:51:33.619Z,17.81
2018-06-21T06:53:33.295Z,17.78
2018-06-21T06:54:33.292Z,17.66
2018-06-21T06:57:33.587Z,17.13
2018-06-21T06:58:33.233Z,16.94
2018-06-21T06:59:33.215Z,16.82
2018-06-21T07:00:33.201Z,16.73
2018-06-21T07:01:33.194Z,16.51
2018-06-21T07:02:33.175Z,16.29
2018-06-21T07:04:33.450Z,15.96
2018-06-21T07:05:33.136Z,15.85
2018-06-21T07:06:33.130Z,15.85
2018-06-21T07:07:33.112Z,15.77
2018-06-21T07:08:33.112Z,15.70
2018-06-21T07:09:33.138Z,15.66
2018-06-21T07:10:33.369Z,15.63
2018-06-21T07:11:33.067Z,15.62
2018-06-21T07:12:33.044Z,15.56
2018-06-21T07:13:33.031Z,15.58
2018-06-21T07:14:33.023Z,15.43
2018-06-21T07:15:33.002Z,15.50
2018-06-21T07:16:33.291Z,15.51
2018-06-21T07:17:32.971Z,15.43
2018-06-21T07:18:32.957Z,15.50
2018-06-21T07:19:32.950Z,15.44
2018-06-21T07:20:32.927Z,15.41
2018-06-21T07:21:32.921Z,15.33
2018-06-21T07:22:33.203Z,15.33
2018-06-21T07:23:32.884Z,15.25
2018-06-21T07:24:32.897Z,15.23
2018-06-21T07:25:32.855Z,15.20
2018-06-21T07:26:32.844Z,15.14
2018-06-21T07:27:32.825Z,15.26
2018-06-21T07:29:33.094Z,15.22
2018-06-21T07:30:32.782Z,15.08
2018-06-21T07:31:32.769Z,15.01
2018-06-21T07:32:32.749Z,15.11
2018-06-21T07:33:32.775Z,15.08
2018-06-21T07:34:32.745Z,15.07
2018-06-21T07:35:33.759Z,14.93
2018-06-21T07:36:32.693Z,14.95
2018-06-21T07:37:32.675Z,15.03
2018-06-21T07:38:32.668Z,15.17
2018-06-21T07:39:33.036Z,15.10
2018-06-21T07:40:33.016Z,15.05
2018-06-21T07:41:32.920Z,15.05
2018-06-21T07:42:32.606Z,14.92
2018-06-21T07:43:32.593Z,14.96
2018-06-21T07:44:32.572Z,14.96
2018-06-21T07:46:32.559Z,15.03
2018-06-21T07:47:32.862Z,14.95
2018-06-21T07:48:32.528Z,14.85
2018-06-21T07:49:32.499Z,14.97
2018-06-21T07:50:32.484Z,14.97
2018-06-21T07:51:32.475Z,14.96
2018-06-21T07:52:32.458Z,15.04
2018-06-21T07:53:32.744Z,15.07
2018-06-21T07:54:32.425Z,15.03
2018-06-21T07:55:32.414Z,14.96
2018-06-21T07:56:32.402Z,14.89
2018-06-21T07:57:32.841Z,14.85
2018-06-21T07:58:32.795Z,14.93
2018-06-21T07:59:32.368Z,14.93
2018-06-21T08:00:32.662Z,14.90
2018-06-21T08:01:32.325Z,15.03
2018-06-21T08:02:32.314Z,14.89
2018-06-21T08:03:32.292Z,14.93
2018-06-21T08:04:32.278Z,14.90
2018-06-21T08:05:32.262Z,14.86
2018-06-21T08:06:32.621Z,14.90
2018-06-21T08:07:32.230Z,14.99
2018-06-21T08:08:32.224Z,14.96
2018-06-21T08:09:32.212Z,15.03
2018-06-21T08:10:32.194Z,14.93
2018-06-21T08:11:32.234Z,14.92
2018-06-21T08:12:32.460Z,14.90
2018-06-21T08:13:32.200Z,14.93
2018-06-21T08:14:32.138Z,14.89
2018-06-21T08:15:32.184Z,15.01
2018-06-21T08:16:32.111Z,14.71
2018-06-21T08:17:32.082Z,14.78
2018-06-21T08:19:32.356Z,14.92
2018-06-21T08:20:32.051Z,14.82
2018-06-21T08:21:32.051Z,14.93
2018-06-21T08:22:32.016Z,14.95
2018-06-21T08:23:32.051Z,14.99
2018-06-21T08:24:31.988Z,14.95
2018-06-21T08:25:32.272Z,14.90
2018-06-21T08:27:32.172Z,14.92
2018-06-21T08:28:31.926Z,14.83
2018-06-21T08:29:31.909Z,14.96
2018-06-21T08:30:31.894Z,15.07
2018-06-21T08:31:32.180Z,15.07
2018-06-21T08:32:31.867Z,15.10
2018-06-21T08:33:31.852Z,15.10
2018-06-21T08:34:31.840Z,14.97
2018-06-21T08:36:31.858Z,14.69
2018-06-21T08:37:32.095Z,14.64
2018-06-21T08:38:31.779Z,14.59
2018-06-21T08:39:31.769Z,14.58
2018-06-21T08:40:31.744Z,14.59
2018-06-21T08:41:31.745Z,14.56
2018-06-21T08:42:31.771Z,14.52
2018-06-21T08:43:32.015Z,14.55
2018-06-21T08:44:31.694Z,14.44
2018-06-21T08:45:31.670Z,14.53
2018-06-21T08:46:31.661Z,14.58
2018-06-21T08:47:31.643Z,14.61
2018-06-21T08:48:31.688Z,14.58
2018-06-21T08:49:31.928Z,14.61
2018-06-21T08:50:31.613Z,14.53
2018-06-21T08:51:31.590Z,14.61
2018-06-21T08:52:31.579Z,14.52
2018-06-21T08:53:31.827Z,14.55
2018-06-21T08:54:31.753Z,14.55
2018-06-21T08:55:31.576Z,14.51
2018-06-21T08:57:31.909Z,14.55
2018-06-21T08:58:31.476Z,14.55
2018-06-21T08:59:31.461Z,14.55
2018-06-21T09:00:31.467Z,14.41
2018-06-21T09:01:31.431Z,14.46
2018-06-21T09:02:31.430Z,14.33
2018-06-21T09:03:31.703Z,14.48
2018-06-21T09:04:31.476Z,14.49
2018-06-21T09:05:31.368Z,14.55
2018-06-21T09:06:31.616Z,14.46
2018-06-21T09:07:31.343Z,14.40
2018-06-21T09:08:31.332Z,14.49
2018-06-21T09:09:31.623Z,14.49
2018-06-21T09:10:31.302Z,14.56
2018-06-21T09:11:31.282Z,14.51
2018-06-21T09:12:31.269Z,14.52
2018-06-21T09:13:31.264Z,14.45
2018-06-21T09:14:31.234Z,14.44
2018-06-21T09:15:31.537Z,14.53
2018-06-21T09:16:31.211Z,14.41
2018-06-21T09:17:31.305Z,14.45
2018-06-21T09:18:31.235Z,14.46
2018-06-21T09:19:31.170Z,14.46
2018-06-21T09:20:31.146Z,14.41
2018-06-21T09:21:31.434Z,14.59
2018-06-21T09:22:31.140Z,14.45
2018-06-21T09:23:31.100Z,14.48
2018-06-21T09:24:31.089Z,14.44
2018-06-21T09:25:31.071Z,14.59
2018-06-21T09:26:31.055Z,14.63
2018-06-21T09:27:31.342Z,14.56
2018-06-21T09:28:31.037Z,14.63
2018-06-21T09:29:31.021Z,14.74
2018-06-21T09:31:30.986Z,14.93
2018-06-21T09:32:30.963Z,14.85
2018-06-21T09:33:31.254Z,14.97
2018-06-21T09:34:30.938Z,14.93
2018-06-21T09:36:30.912Z,15.11
2018-06-21T09:37:30.984Z,15.08
2018-06-21T09:38:30.883Z,15.36
2018-06-21T09:39:31.167Z,15.52
2018-06-21T09:40:30.850Z,15.65
2018-06-21T09:41:30.881Z,15.69
2018-06-21T09:42:30.825Z,15.65
2018-06-21T09:43:30.808Z,15.77
2018-06-21T09:44:30.796Z,15.84
2018-06-21T09:45:31.082Z,15.98
2018-06-21T09:46:34.366Z,16.14
2018-06-21T09:47:30.760Z,16.02
2018-06-21T09:48:30.756Z,16.18
2018-06-21T09:49:30.737Z,16.16
2018-06-21T09:50:30.820Z,16.22
2018-06-21T09:51:31.004Z,16.17
2018-06-21T09:52:30.755Z,16.10
2018-06-21T09:53:30.680Z,16.39
2018-06-21T09:54:30.678Z,16.42
2018-06-21T09:55:30.656Z,16.42
2018-06-21T09:57:30.962Z,16.43
2018-06-21T09:58:30.674Z,16.52
2018-06-21T09:59:30.609Z,16.43
2018-06-21T10:00:30.595Z,16.51
2018-06-21T10:01:30.651Z,16.74
2018-06-21T10:02:30.575Z,16.76
2018-06-21T10:03:30.864Z,16.62
2018-06-21T10:04:30.554Z,16.61
2018-06-21T10:05:30.539Z,16.64
2018-06-21T10:06:30.534Z,16.61
2018-06-21T10:07:30.573Z,16.46
2018-06-21T10:08:30.511Z,16.17
2018-06-21T10:09:30.795Z,16.21
2018-06-21T10:10:30.485Z,16.02
2018-06-21T10:11:30.483Z,15.93
2018-06-21T10:12:30.465Z,15.93
2018-06-21T10:13:31.018Z,16.02
2018-06-21T10:16:30.716Z,16.21
2018-06-21T10:17:30.464Z,16.10
2018-06-21T10:18:30.391Z,15.96
2018-06-21T10:19:30.382Z,15.88
2018-06-21T10:20:30.370Z,16.16
2018-06-21T10:21:30.361Z,16.34
2018-06-21T10:22:30.654Z,16.58
2018-06-21T10:23:30.332Z,16.72
2018-06-21T10:24:30.333Z,16.92
2018-06-21T10:25:30.403Z,16.84
2018-06-21T10:26:30.299Z,17.04
2018-06-21T10:27:30.292Z,17.04
2018-06-21T10:28:30.273Z,16.69
2018-06-21T10:29:30.567Z,16.52
2018-06-21T10:30:30.248Z,16.40
2018-06-21T10:31:30.246Z,16.37
2018-06-21T10:32:30.227Z,16.39
2018-06-21T10:33:30.252Z,16.33
2018-06-21T10:34:30.217Z,16.22
2018-06-21T10:35:30.492Z,15.98
2018-06-21T10:36:30.179Z,15.95
2018-06-21T10:37:30.166Z,15.98
2018-06-21T10:38:30.153Z,15.96
2018-06-21T10:39:30.505Z,15.88
2018-06-21T10:40:30.135Z,15.96
2018-06-21T10:43:30.105Z,15.84
2018-06-21T10:44:30.085Z,15.88
2018-06-21T10:45:30.072Z,16.05
2018-06-21T10:46:30.085Z,16.08
2018-06-21T10:47:30.348Z,16.10
2018-06-21T10:48:30.029Z,16.18
2018-06-21T10:49:30.120Z,16.18
2018-06-21T10:50:30.015Z,16.17
2018-06-21T10:51:29.997Z,16.29
2018-06-21T10:52:29.983Z,16.43
2018-06-21T10:53:29.976Z,16.29
2018-06-21T10:54:30.257Z,16.37
2018-06-21T10:55:29.995Z,16.28
2018-06-21T10:56:29.935Z,16.25
2018-06-21T10:57:29.922Z,16.26
2018-06-21T10:58:29.909Z,16.22
2018-06-21T10:59:29.889Z,16.26
2018-06-21T11:00:30.800Z,16.32
2018-06-21T11:01:29.866Z,16.49
2018-06-21T11:02:29.866Z,16.61
2018-06-21T11:03:29.938Z,16.76
2018-06-21T11:04:30.109Z,16.94
2018-06-21T11:05:30.042Z,17.09
2018-06-21T11:06:30.272Z,18.09
2018-06-21T11:07:29.991Z,18.76
2018-06-21T11:08:29.974Z,18.97
2018-06-21T11:09:30.158Z,18.98
2018-06-21T11:10:29.762Z,18.89
2018-06-21T11:11:29.770Z,19.20
2018-06-21T11:12:29.734Z,18.85
2018-06-21T11:13:30.045Z,18.15
2018-06-21T11:14:29.720Z,17.79
2018-06-21T11:15:29.705Z,17.31
2018-06-21T11:16:29.696Z,16.58
2018-06-21T11:17:29.686Z,14.93
2018-06-21T11:18:29.728Z,13.23
2018-06-21T11:19:29.974Z,12.50
2018-06-21T11:21:29.909Z,12.14
2018-06-21T11:22:29.636Z,12.00
2018-06-21T11:23:29.625Z,11.96
2018-06-21T11:24:29.618Z,11.95
2018-06-21T11:25:29.601Z,11.99
2018-06-21T11:26:29.885Z,12.13
2018-06-21T11:27:29.592Z,12.14
2018-06-21T11:29:29.562Z,12.07
2018-06-21T11:30:29.531Z,12.14
2018-06-21T11:31:29.516Z,12.21
2018-06-21T11:32:29.856Z,12.05
2018-06-21T11:33:29.498Z,12.14
2018-06-21T11:34:29.478Z,12.08
2018-06-21T11:35:29.460Z,12.23
2018-06-21T11:36:29.445Z,12.15
2018-06-21T11:37:29.524Z,12.26
2018-06-21T11:38:29.899Z,12.26
2018-06-21T11:39:29.430Z,12.22
2018-06-21T11:40:29.391Z,12.25
2018-06-21T11:41:29.379Z,12.10
2018-06-21T11:42:29.372Z,12.00
2018-06-21T11:43:29.413Z,12.07
2018-06-21T11:44:29.630Z,12.13
2018-06-21T11:45:29.314Z,12.30
2018-06-21T11:46:29.292Z,12.25
2018-06-21T11:47:29.278Z,12.17
2018-06-21T11:48:29.282Z,12.28
2018-06-21T11:49:29.309Z,12.28
2018-06-21T11:50:29.238Z,12.46
2018-06-21T11:51:29.253Z,12.47
2018-06-21T11:52:29.248Z,12.44
2018-06-21T11:53:29.194Z,12.46
2018-06-21T11:54:29.208Z,12.72
2018-06-21T11:55:29.511Z,12.79
2018-06-21T11:56:29.135Z,12.87
2018-06-21T11:57:29.127Z,13.06
2018-06-21T11:58:29.165Z,13.36
2018-06-21T11:59:29.086Z,13.61
2018-06-21T12:00:29.080Z,13.61
2018-06-21T12:01:29.067Z,13.72
2018-06-21T12:02:29.077Z,13.55
2018-06-21T12:03:29.173Z,13.49
2018-06-21T12:04:29.017Z,13.49
2018-06-21T12:05:29.054Z,13.46
2018-06-21T12:06:29.282Z,13.43
2018-06-21T12:07:28.972Z,13.57
2018-06-21T12:09:28.982Z,13.93
2018-06-21T12:10:28.928Z,13.80
2018-06-21T12:11:28.911Z,13.64
2018-06-21T12:12:29.193Z,13.63
2018-06-21T12:13:28.899Z,13.71
2018-06-21T12:14:28.874Z,13.63
2018-06-21T12:15:28.860Z,13.55
2018-06-21T12:16:28.845Z,13.58
2018-06-21T12:17:28.823Z,13.42
2018-06-21T12:18:29.257Z,13.39
2018-06-21T12:19:28.802Z,13.43
2018-06-21T12:20:28.805Z,13.51
2018-06-21T12:21:28.830Z,13.58
2018-06-21T12:22:28.786Z,13.58
2018-06-21T12:23:28.751Z,13.58
2018-06-21T12:24:29.032Z,13.58
2018-06-21T12:25:28.711Z,13.47
2018-06-21T12:26:28.820Z,13.43
2018-06-21T12:27:28.716Z,13.47
2018-06-21T12:28:28.667Z,13.35
2018-06-21T12:29:28.646Z,13.38
2018-06-21T12:30:28.635Z,13.51
2018-06-21T12:31:29.028Z,13.43
2018-06-21T12:32:28.609Z,13.35
2018-06-21T12:33:28.589Z,13.42
2018-06-21T12:34:28.585Z,13.35
2018-06-21T12:35:28.573Z,13.35
2018-06-21T12:36:28.545Z,13.30
2018-06-21T12:37:28.577Z,13.39
2018-06-21T12:38:28.812Z,13.40
2018-06-21T12:39:28.495Z,13.43
2018-06-21T12:40:28.483Z,13.54
2018-06-21T12:41:28.465Z,14.01
2018-06-21T12:42:28.505Z,14.55
2018-06-21T12:43:28.437Z,14.95
2018-06-21T12:44:28.719Z,14.61
2018-06-21T12:46:28.390Z,14.77
2018-06-21T12:47:28.387Z,14.70
2018-06-21T12:48:28.382Z,14.48
2018-06-21T12:49:28.420Z,15.20
2018-06-21T12:50:28.655Z,15.59
2018-06-21T12:51:28.354Z,16.10
2018-06-21T12:52:28.317Z,16.44
2018-06-21T12:53:28.302Z,16.25
2018-06-21T12:54:28.281Z,16.22
2018-06-21T12:55:28.273Z,16.34
2018-06-21T12:56:28.556Z,16.47
2018-06-21T12:57:28.251Z,16.59
2018-06-21T12:58:28.232Z,16.43
2018-06-21T12:59:28.231Z,16.47
2018-06-21T13:00:28.254Z,16.49
2018-06-21T13:01:28.249Z,16.76
2018-06-21T13:02:28.186Z,17.12
2018-06-21T13:03:28.502Z,16.99
2018-06-21T13:04:28.237Z,16.91
2018-06-21T13:05:28.195Z,17.12
2018-06-21T13:06:28.160Z,17.25
2018-06-21T13:07:28.140Z,17.78
2018-06-21T13:08:28.129Z,17.99
2018-06-21T13:09:28.124Z,17.96
2018-06-21T13:10:28.427Z,17.25
2018-06-21T13:11:28.129Z,17.39
2018-06-21T13:12:28.095Z,17.47
2018-06-21T13:13:28.132Z,17.78
2018-06-21T13:14:28.188Z,17.20
2018-06-21T13:15:28.126Z,17.04
2018-06-21T13:16:28.359Z,16.94
2018-06-21T13:17:28.066Z,16.97
2018-06-21T13:18:28.073Z,17.07
2018-06-21T13:19:28.035Z,16.72
2018-06-21T13:20:28.038Z,17.38
2018-06-21T13:21:28.023Z,17.69
2018-06-21T13:22:28.396Z,17.30
2018-06-21T13:23:27.998Z,16.82
2018-06-21T13:24:28.011Z,16.28
2018-06-21T13:25:27.983Z,15.98
2018-06-21T13:27:27.966Z,15.48
2018-06-21T13:28:28.266Z,15.25
2018-06-21T13:29:27.941Z,15.23
2018-06-21T13:30:27.938Z,14.86